sensor_id;sensor_type;location;lat;lon;timestamp;P1;durP1;ratioP1;P2;durP2;ratioP2
6689;SDS011;3382;51.576;8.076;2022-09-27T00:00:31;8.43;;;3.37;;
6689;SDS011;3382;51.576;8.076;2022-09-27T00:02:56;7.27;;;3.17;;
6689;SDS011;3382;51.576;8.076;2022-09-27T00:05:22;6.00;;;2.90;;
6689;SDS011;3382;51.576;8.076;2022-09-27T00:07:48;8.07;;;3.40;;
6689;SDS011;3382;51.576;8.076;2022-09-27T00:10:14;12.57;;;3.90;;
6689;SDS011;3382;51.576;8.076;2022-09-27T00:12:40;7.50;;;3.03;;
6689;SDS011;3382;51.576;8.076;2022-09-27T00:15:06;6.73;;;3.27;;
6689;SDS011;3382;51.576;8.076;2022-09-27T00:17:33;8.33;;;3.83;;
6689;SDS011;3382;51.576;8.076;2022-09-27T00:20:00;6.13;;;3.50;;
6689;SDS011;3382;51.576;8.076;2022-09-27T00:22:27;5.40;;;3.60;;
6689;SDS011;3382;51.576;8.076;2022-09-27T00:24:53;8.93;;;3.70;;
6689;SDS011;3382;51.576;8.076;2022-09-27T00:27:19;5.60;;;3.27;;
6689;SDS011;3382;51.576;8.076;2022-09-27T00:29:45;9.00;;;3.67;;
6689;SDS011;3382;51.576;8.076;2022-09-27T00:32:13;9.30;;;3.43;;
6689;SDS011;3382;51.576;8.076;2022-09-27T00:34:38;6.40;;;3.30;;
6689;SDS011;3382;51.576;8.076;2022-09-27T00:37:05;6.30;;;4.03;;
6689;SDS011;3382;51.576;8.076;2022-09-27T00:39:31;6.30;;;3.63;;
6689;SDS011;3382;51.576;8.076;2022-09-27T00:41:57;4.63;;;3.87;;
6689;SDS011;3382;51.576;8.076;2022-09-27T00:55:02;8.07;;;5.20;;
6689;SDS011;3382;51.576;8.076;2022-09-27T00:57:34;8.50;;;5.70;;
6689;SDS011;3382;51.576;8.076;2022-09-27T01:00:01;5.70;;;4.60;;
6689;SDS011;3382;51.576;8.076;2022-09-27T01:02:33;7.07;;;4.27;;
6689;SDS011;3382;51.576;8.076;2022-09-27T01:05:00;3.97;;;3.40;;
6689;SDS011;3382;51.576;8.076;2022-09-27T01:07:26;3.30;;;3.00;;
6689;SDS011;3382;51.576;8.076;2022-09-27T01:09:52;4.20;;;2.97;;
6689;SDS011;3382;51.576;8.076;2022-09-27T01:17:49;2.73;;;2.10;;
6689;SDS011;3382;51.576;8.076;2022-09-27T01:28:29;3.23;;;2.20;;
6689;SDS011;3382;51.576;8.076;2022-09-27T01:33:45;3.23;;;1.90;;
6689;SDS011;3382;51.576;8.076;2022-09-27T01:36:18;4.70;;;2.10;;
6689;SDS011;3382;51.576;8.076;2022-09-27T01:44:40;2.33;;;1.77;;
6689;SDS011;3382;51.576;8.076;2022-09-27T01:47:20;4.00;;;1.80;;
6689;SDS011;3382;51.576;8.076;2022-09-27T01:49:54;3.57;;;1.80;;
6689;SDS011;3382;51.576;8.076;2022-09-27T01:52:31;3.70;;;1.80;;
6689;SDS011;3382;51.576;8.076;2022-09-27T01:55:13;4.07;;;1.83;;
6689;SDS011;3382;51.576;8.076;2022-09-27T01:57:42;2.97;;;1.90;;
6689;SDS011;3382;51.576;8.076;2022-09-27T02:00:14;5.70;;;1.80;;
6689;SDS011;3382;51.576;8.076;2022-09-27T02:02:44;5.10;;;1.60;;
6689;SDS011;3382;51.576;8.076;2022-09-27T02:05:18;2.67;;;1.47;;
6689;SDS011;3382;51.576;8.076;2022-09-27T02:10:22;1.73;;;1.30;;
6689;SDS011;3382;51.576;8.076;2022-09-27T02:13:35;4.20;;;1.77;;
6689;SDS011;3382;51.576;8.076;2022-09-27T02:21:24;6.47;;;2.20;;
6689;SDS011;3382;51.576;8.076;2022-09-27T02:24:02;4.93;;;2.70;;
6689;SDS011;3382;51.576;8.076;2022-09-27T02:26:37;6.60;;;3.10;;
6689;SDS011;3382;51.576;8.076;2022-09-27T02:31:35;4.37;;;2.23;;
6689;SDS011;3382;51.576;8.076;2022-09-27T02:34:02;4.13;;;2.13;;
6689;SDS011;3382;51.576;8.076;2022-09-27T02:36:31;2.83;;;2.30;;
6689;SDS011;3382;51.576;8.076;2022-09-27T02:38:57;3.23;;;2.23;;
6689;SDS011;3382;51.576;8.076;2022-09-27T02:41:24;4.87;;;2.27;;
6689;SDS011;3382;51.576;8.076;2022-09-27T02:43:54;5.17;;;2.50;;
6689;SDS011;3382;51.576;8.076;2022-09-27T02:46:29;5.83;;;3.10;;
6689;SDS011;3382;51.576;8.076;2022-09-27T02:49:34;4.57;;;3.00;;
6689;SDS011;3382;51.576;8.076;2022-09-27T02:58:20;6.07;;;4.07;;
6689;SDS011;3382;51.576;8.076;2022-09-27T03:01:02;6.73;;;4.53;;
6689;SDS011;3382;51.576;8.076;2022-09-27T03:06:45;7.83;;;4.87;;
6689;SDS011;3382;51.576;8.076;2022-09-27T03:09:12;8.63;;;5.27;;
6689;SDS011;3382;51.576;8.076;2022-09-27T03:11:44;5.57;;;4.77;;
6689;SDS011;3382;51.576;8.076;2022-09-27T03:14:10;6.73;;;4.60;;
6689;SDS011;3382;51.576;8.076;2022-09-27T03:16:35;9.57;;;4.70;;
6689;SDS011;3382;51.576;8.076;2022-09-27T03:19:01;6.37;;;4.40;;
6689;SDS011;3382;51.576;8.076;2022-09-27T03:21:26;7.57;;;5.13;;
6689;SDS011;3382;51.576;8.076;2022-09-27T03:23:53;6.47;;;4.93;;
6689;SDS011;3382;51.576;8.076;2022-09-27T03:26:19;8.73;;;5.10;;
6689;SDS011;3382;51.576;8.076;2022-09-27T03:28:45;6.83;;;4.10;;
6689;SDS011;3382;51.576;8.076;2022-09-27T03:31:10;6.77;;;4.70;;
6689;SDS011;3382;51.576;8.076;2022-09-27T03:33:36;6.43;;;4.60;;
6689;SDS011;3382;51.576;8.076;2022-09-27T03:36:02;5.83;;;4.57;;
6689;SDS011;3382;51.576;8.076;2022-09-27T03:38:28;6.03;;;4.20;;
6689;SDS011;3382;51.576;8.076;2022-09-27T03:40:53;5.33;;;4.00;;
6689;SDS011;3382;51.576;8.076;2022-09-27T03:43:19;7.40;;;4.80;;
6689;SDS011;3382;51.576;8.076;2022-09-27T03:45:45;2.93;;;2.13;;
6689;SDS011;3382;51.576;8.076;2022-09-27T03:48:11;2.47;;;2.10;;
6689;SDS011;3382;51.576;8.076;2022-09-27T03:50:37;1.87;;;1.77;;
6689;SDS011;3382;51.576;8.076;2022-09-27T03:53:02;2.10;;;1.43;;
6689;SDS011;3382;51.576;8.076;2022-09-27T03:55:28;1.80;;;1.70;;
6689;SDS011;3382;51.576;8.076;2022-09-27T03:57:53;1.40;;;1.30;;
6689;SDS011;3382;51.576;8.076;2022-09-27T04:00:20;3.23;;;2.90;;
6689;SDS011;3382;51.576;8.076;2022-09-27T04:02:45;4.10;;;3.20;;
6689;SDS011;3382;51.576;8.076;2022-09-27T04:05:11;4.57;;;3.57;;
6689;SDS011;3382;51.576;8.076;2022-09-27T04:07:37;4.63;;;3.93;;
6689;SDS011;3382;51.576;8.076;2022-09-27T04:10:03;4.33;;;3.77;;
6689;SDS011;3382;51.576;8.076;2022-09-27T04:12:30;4.60;;;4.00;;
6689;SDS011;3382;51.576;8.076;2022-09-27T04:14:57;4.53;;;3.67;;
6689;SDS011;3382;51.576;8.076;2022-09-27T04:17:22;9.13;;;3.27;;
6689;SDS011;3382;51.576;8.076;2022-09-27T04:19:49;3.07;;;2.47;;
6689;SDS011;3382;51.576;8.076;2022-09-27T04:22:15;2.97;;;2.30;;
6689;SDS011;3382;51.576;8.076;2022-09-27T04:24:41;3.90;;;2.13;;
6689;SDS011;3382;51.576;8.076;2022-09-27T04:27:07;2.80;;;1.90;;
6689;SDS011;3382;51.576;8.076;2022-09-27T04:29:32;4.33;;;2.40;;
6689;SDS011;3382;51.576;8.076;2022-09-27T04:31:58;4.67;;;2.73;;
6689;SDS011;3382;51.576;8.076;2022-09-27T04:34:24;3.57;;;2.00;;
6689;SDS011;3382;51.576;8.076;2022-09-27T04:37:09;2.40;;;1.80;;
6689;SDS011;3382;51.576;8.076;2022-09-27T04:39:35;3.67;;;2.03;;
6689;SDS011;3382;51.576;8.076;2022-09-27T04:42:03;3.30;;;1.80;;
6689;SDS011;3382;51.576;8.076;2022-09-27T04:44:29;2.07;;;1.30;;
6689;SDS011;3382;51.576;8.076;2022-09-27T04:46:55;4.20;;;3.03;;
6689;SDS011;3382;51.576;8.076;2022-09-27T04:49:21;1.83;;;1.70;;
6689;SDS011;3382;51.576;8.076;2022-09-27T04:51:46;2.63;;;1.33;;
6689;SDS011;3382;51.576;8.076;2022-09-27T04:54:12;2.57;;;1.97;;
6689;SDS011;3382;51.576;8.076;2022-09-27T04:56:38;1.90;;;1.63;;
6689;SDS011;3382;51.576;8.076;2022-09-27T04:59:04;2.80;;;1.53;;
6689;SDS011;3382;51.576;8.076;2022-09-27T05:01:29;2.13;;;1.43;;
6689;SDS011;3382;51.576;8.076;2022-09-27T05:03:55;4.80;;;1.70;;
6689;SDS011;3382;51.576;8.076;2022-09-27T05:06:21;2.23;;;1.20;;
6689;SDS011;3382;51.576;8.076;2022-09-27T05:08:46;4.37;;;1.90;;
6689;SDS011;3382;51.576;8.076;2022-09-27T05:11:12;3.80;;;2.10;;
6689;SDS011;3382;51.576;8.076;2022-09-27T05:13:37;3.60;;;1.47;;
6689;SDS011;3382;51.576;8.076;2022-09-27T05:16:03;2.90;;;1.20;;
6689;SDS011;3382;51.576;8.076;2022-09-27T05:18:29;3.50;;;1.20;;
6689;SDS011;3382;51.576;8.076;2022-09-27T05:20:55;4.20;;;1.27;;
6689;SDS011;3382;51.576;8.076;2022-09-27T05:23:22;3.13;;;1.20;;
6689;SDS011;3382;51.576;8.076;2022-09-27T05:25:49;2.13;;;1.20;;
6689;SDS011;3382;51.576;8.076;2022-09-27T05:28:14;3.47;;;1.20;;
6689;SDS011;3382;51.576;8.076;2022-09-27T05:30:40;5.53;;;1.50;;
6689;SDS011;3382;51.576;8.076;2022-09-27T05:33:06;8.27;;;1.40;;
6689;SDS011;3382;51.576;8.076;2022-09-27T05:35:31;3.43;;;1.40;;
6689;SDS011;3382;51.576;8.076;2022-09-27T05:37:58;4.57;;;1.63;;
6689;SDS011;3382;51.576;8.076;2022-09-27T05:40:24;8.37;;;2.03;;
6689;SDS011;3382;51.576;8.076;2022-09-27T05:42:51;2.40;;;1.73;;
6689;SDS011;3382;51.576;8.076;2022-09-27T05:45:17;2.20;;;1.23;;
6689;SDS011;3382;51.576;8.076;2022-09-27T05:47:51;1.40;;;1.07;;
6689;SDS011;3382;51.576;8.076;2022-09-27T05:50:20;3.73;;;1.20;;
6689;SDS011;3382;51.576;8.076;2022-09-27T05:52:46;3.07;;;1.10;;
6689;SDS011;3382;51.576;8.076;2022-09-27T05:55:13;2.57;;;2.37;;
6689;SDS011;3382;51.576;8.076;2022-09-27T05:57:38;2.97;;;2.17;;
6689;SDS011;3382;51.576;8.076;2022-09-27T06:00:04;2.40;;;1.13;;
6689;SDS011;3382;51.576;8.076;2022-09-27T06:02:31;2.17;;;1.67;;
6689;SDS011;3382;51.576;8.076;2022-09-27T06:04:57;3.13;;;1.67;;
6689;SDS011;3382;51.576;8.076;2022-09-27T06:07:24;1.93;;;0.93;;
6689;SDS011;3382;51.576;8.076;2022-09-27T06:09:50;3.20;;;1.10;;
6689;SDS011;3382;51.576;8.076;2022-09-27T06:12:15;1.43;;;1.00;;
6689;SDS011;3382;51.576;8.076;2022-09-27T06:14:41;1.20;;;1.10;;
6689;SDS011;3382;51.576;8.076;2022-09-27T06:17:07;1.97;;;1.20;;
6689;SDS011;3382;51.576;8.076;2022-09-27T06:19:32;3.57;;;1.60;;
6689;SDS011;3382;51.576;8.076;2022-09-27T06:21:59;1.10;;;1.00;;
6689;SDS011;3382;51.576;8.076;2022-09-27T06:24:25;1.17;;;1.07;;
6689;SDS011;3382;51.576;8.076;2022-09-27T06:26:50;1.63;;;1.10;;
6689;SDS011;3382;51.576;8.076;2022-09-27T06:29:16;2.53;;;1.13;;
6689;SDS011;3382;51.576;8.076;2022-09-27T06:31:41;0.83;;;0.83;;
6689;SDS011;3382;51.576;8.076;2022-09-27T06:34:07;0.97;;;0.87;;
6689;SDS011;3382;51.576;8.076;2022-09-27T06:36:33;2.00;;;0.87;;
6689;SDS011;3382;51.576;8.076;2022-09-27T06:38:58;1.83;;;1.10;;
6689;SDS011;3382;51.576;8.076;2022-09-27T06:41:25;1.70;;;1.00;;
6689;SDS011;3382;51.576;8.076;2022-09-27T06:43:51;3.00;;;0.97;;
6689;SDS011;3382;51.576;8.076;2022-09-27T06:46:17;1.10;;;1.00;;
6689;SDS011;3382;51.576;8.076;2022-09-27T06:48:42;1.60;;;0.80;;
6689;SDS011;3382;51.576;8.076;2022-09-27T06:51:08;2.20;;;2.00;;
6689;SDS011;3382;51.576;8.076;2022-09-27T06:53:33;1.60;;;1.10;;
6689;SDS011;3382;51.576;8.076;2022-09-27T06:56:00;1.10;;;1.00;;
6689;SDS011;3382;51.576;8.076;2022-09-27T06:58:26;1.10;;;1.00;;
6689;SDS011;3382;51.576;8.076;2022-09-27T07:01:11;2.03;;;1.87;;
6689;SDS011;3382;51.576;8.076;2022-09-27T07:03:37;1.33;;;1.20;;
6689;SDS011;3382;51.576;8.076;2022-09-27T07:06:06;2.73;;;1.20;;
6689;SDS011;3382;51.576;8.076;2022-09-27T07:08:35;0.93;;;0.93;;
6689;SDS011;3382;51.576;8.076;2022-09-27T07:11:03;1.57;;;1.40;;
6689;SDS011;3382;51.576;8.076;2022-09-27T07:13:30;2.03;;;1.37;;
6689;SDS011;3382;51.576;8.076;2022-09-27T07:15:58;1.40;;;1.30;;
6689;SDS011;3382;51.576;8.076;2022-09-27T07:18:24;1.00;;;0.70;;
6689;SDS011;3382;51.576;8.076;2022-09-27T07:20:51;1.17;;;1.07;;
6689;SDS011;3382;51.576;8.076;2022-09-27T07:23:17;1.13;;;1.13;;
6689;SDS011;3382;51.576;8.076;2022-09-27T07:25:43;1.40;;;1.30;;
6689;SDS011;3382;51.576;8.076;2022-09-27T07:28:12;1.50;;;1.23;;
6689;SDS011;3382;51.576;8.076;2022-09-27T07:30:39;1.90;;;1.20;;
6689;SDS011;3382;51.576;8.076;2022-09-27T07:33:05;2.80;;;1.53;;
6689;SDS011;3382;51.576;8.076;2022-09-27T07:35:32;1.50;;;1.40;;
6689;SDS011;3382;51.576;8.076;2022-09-27T07:38:01;1.97;;;1.40;;
6689;SDS011;3382;51.576;8.076;2022-09-27T07:40:29;1.37;;;1.27;;
6689;SDS011;3382;51.576;8.076;2022-09-27T07:42:55;1.43;;;1.30;;
6689;SDS011;3382;51.576;8.076;2022-09-27T07:45:22;2.20;;;1.40;;
6689;SDS011;3382;51.576;8.076;2022-09-27T07:47:48;1.40;;;1.30;;
6689;SDS011;3382;51.576;8.076;2022-09-27T07:50:14;1.60;;;1.27;;
6689;SDS011;3382;51.576;8.076;2022-09-27T07:52:40;1.70;;;1.60;;
6689;SDS011;3382;51.576;8.076;2022-09-27T07:55:08;2.13;;;1.50;;
6689;SDS011;3382;51.576;8.076;2022-09-27T07:57:35;1.47;;;1.20;;
6689;SDS011;3382;51.576;8.076;2022-09-27T08:00:05;1.20;;;1.17;;
6689;SDS011;3382;51.576;8.076;2022-09-27T08:02:33;1.93;;;1.40;;
6689;SDS011;3382;51.576;8.076;2022-09-27T08:04:58;2.03;;;1.40;;
6689;SDS011;3382;51.576;8.076;2022-09-27T08:07:24;2.10;;;1.50;;
6689;SDS011;3382;51.576;8.076;2022-09-27T08:09:50;2.10;;;1.00;;
6689;SDS011;3382;51.576;8.076;2022-09-27T08:12:16;2.03;;;1.20;;
6689;SDS011;3382;51.576;8.076;2022-09-27T08:14:42;3.13;;;1.40;;
6689;SDS011;3382;51.576;8.076;2022-09-27T08:17:11;1.57;;;1.30;;
6689;SDS011;3382;51.576;8.076;2022-09-27T08:19:37;2.97;;;0.97;;
6689;SDS011;3382;51.576;8.076;2022-09-27T08:22:03;2.23;;;1.37;;
6689;SDS011;3382;51.576;8.076;2022-09-27T08:24:29;3.60;;;1.27;;
6689;SDS011;3382;51.576;8.076;2022-09-27T08:26:55;2.83;;;1.53;;
6689;SDS011;3382;51.576;8.076;2022-09-27T08:29:20;1.30;;;1.20;;
6689;SDS011;3382;51.576;8.076;2022-09-27T08:31:46;1.33;;;1.00;;
6689;SDS011;3382;51.576;8.076;2022-09-27T08:34:14;1.43;;;1.33;;
6689;SDS011;3382;51.576;8.076;2022-09-27T08:36:41;1.20;;;1.10;;
6689;SDS011;3382;51.576;8.076;2022-09-27T08:39:07;2.03;;;1.40;;
6689;SDS011;3382;51.576;8.076;2022-09-27T08:41:37;2.07;;;1.47;;
6689;SDS011;3382;51.576;8.076;2022-09-27T08:44:21;1.40;;;1.13;;
6689;SDS011;3382;51.576;8.076;2022-09-27T08:49:40;1.40;;;1.20;;
6689;SDS011;3382;51.576;8.076;2022-09-27T08:52:31;1.40;;;1.30;;
6689;SDS011;3382;51.576;8.076;2022-09-27T08:55:05;1.20;;;1.10;;
6689;SDS011;3382;51.576;8.076;2022-09-27T08:57:44;1.50;;;1.23;;
6689;SDS011;3382;51.576;8.076;2022-09-27T09:00:17;1.53;;;1.30;;
6689;SDS011;3382;51.576;8.076;2022-09-27T09:02:43;1.73;;;1.40;;
6689;SDS011;3382;51.576;8.076;2022-09-27T09:05:10;3.40;;;1.80;;
6689;SDS011;3382;51.576;8.076;2022-09-27T09:13:20;1.40;;;1.30;;
6689;SDS011;3382;51.576;8.076;2022-09-27T09:16:20;1.20;;;1.10;;
6689;SDS011;3382;51.576;8.076;2022-09-27T09:22:17;1.20;;;1.10;;
6689;SDS011;3382;51.576;8.076;2022-09-27T09:24:58;2.10;;;1.30;;
6689;SDS011;3382;51.576;8.076;2022-09-27T09:30:21;2.17;;;1.30;;
6689;SDS011;3382;51.576;8.076;2022-09-27T09:41:16;2.23;;;1.40;;
6689;SDS011;3382;51.576;8.076;2022-09-27T09:43:46;4.07;;;1.50;;
6689;SDS011;3382;51.576;8.076;2022-09-27T09:46:21;1.40;;;1.30;;
6689;SDS011;3382;51.576;8.076;2022-09-27T09:49:26;1.30;;;1.20;;
6689;SDS011;3382;51.576;8.076;2022-09-27T09:51:50;1.20;;;1.10;;
6689;SDS011;3382;51.576;8.076;2022-09-27T09:59:42;1.23;;;1.13;;
6689;SDS011;3382;51.576;8.076;2022-09-27T10:04:56;1.50;;;1.40;;
6689;SDS011;3382;51.576;8.076;2022-09-27T10:07:22;1.00;;;1.00;;
6689;SDS011;3382;51.576;8.076;2022-09-27T10:09:49;1.03;;;1.03;;
6689;SDS011;3382;51.576;8.076;2022-09-27T10:12:17;1.30;;;1.20;;
6689;SDS011;3382;51.576;8.076;2022-09-27T10:14:47;1.20;;;1.10;;
6689;SDS011;3382;51.576;8.076;2022-09-27T10:17:18;1.27;;;1.17;;
6689;SDS011;3382;51.576;8.076;2022-09-27T10:19:47;1.60;;;1.20;;
6689;SDS011;3382;51.576;8.076;2022-09-27T10:22:23;0.90;;;0.90;;
6689;SDS011;3382;51.576;8.076;2022-09-27T10:24:59;2.03;;;1.40;;
6689;SDS011;3382;51.576;8.076;2022-09-27T10:27:40;1.33;;;1.20;;
6689;SDS011;3382;51.576;8.076;2022-09-27T10:30:20;1.40;;;1.30;;
6689;SDS011;3382;51.576;8.076;2022-09-27T10:32:52;1.80;;;1.20;;
6689;SDS011;3382;51.576;8.076;2022-09-27T10:35:34;3.03;;;1.10;;
6689;SDS011;3382;51.576;8.076;2022-09-27T10:40:47;1.10;;;0.80;;
6689;SDS011;3382;51.576;8.076;2022-09-27T10:45:57;1.27;;;1.10;;
6689;SDS011;3382;51.576;8.076;2022-09-27T10:48:27;0.90;;;0.90;;
6689;SDS011;3382;51.576;8.076;2022-09-27T10:53:25;1.43;;;1.13;;
6689;SDS011;3382;51.576;8.076;2022-09-27T10:55:53;1.10;;;1.00;;
6689;SDS011;3382;51.576;8.076;2022-09-27T10:58:26;2.20;;;1.00;;
6689;SDS011;3382;51.576;8.076;2022-09-27T11:01:16;2.40;;;1.00;;
6689;SDS011;3382;51.576;8.076;2022-09-27T11:03:50;1.20;;;1.00;;
6689;SDS011;3382;51.576;8.076;2022-09-27T11:08:47;1.10;;;0.97;;
6689;SDS011;3382;51.576;8.076;2022-09-27T11:25:33;1.00;;;0.83;;
6689;SDS011;3382;51.576;8.076;2022-09-27T11:31:35;0.93;;;0.90;;
6689;SDS011;3382;51.576;8.076;2022-09-27T11:46:45;0.97;;;0.80;;
6689;SDS011;3382;51.576;8.076;2022-09-27T11:58:07;0.70;;;0.70;;
6689;SDS011;3382;51.576;8.076;2022-09-27T12:01:05;0.70;;;0.70;;
6689;SDS011;3382;51.576;8.076;2022-09-27T12:03:38;0.60;;;0.60;;
6689;SDS011;3382;51.576;8.076;2022-09-27T12:11:28;0.70;;;0.70;;
6689;SDS011;3382;51.576;8.076;2022-09-27T12:16:41;0.67;;;0.67;;
6689;SDS011;3382;51.576;8.076;2022-09-27T12:19:11;1.07;;;0.90;;
6689;SDS011;3382;51.576;8.076;2022-09-27T12:21:47;0.87;;;0.87;;
6689;SDS011;3382;51.576;8.076;2022-09-27T12:24:15;1.53;;;0.80;;
6689;SDS011;3382;51.576;8.076;2022-09-27T12:26:44;0.70;;;0.70;;
6689;SDS011;3382;51.576;8.076;2022-09-27T12:29:21;1.57;;;0.97;;
6689;SDS011;3382;51.576;8.076;2022-09-27T12:34:39;0.70;;;0.70;;
6689;SDS011;3382;51.576;8.076;2022-09-27T12:45:26;0.60;;;0.60;;
6689;SDS011;3382;51.576;8.076;2022-09-27T12:48:14;0.60;;;0.60;;
6689;SDS011;3382;51.576;8.076;2022-09-27T12:50:54;1.50;;;0.70;;
6689;SDS011;3382;51.576;8.076;2022-09-27T12:53:40;0.70;;;0.70;;
6689;SDS011;3382;51.576;8.076;2022-09-27T13:04:39;0.60;;;0.60;;
6689;SDS011;3382;51.576;8.076;2022-09-27T13:07:33;9.53;;;4.73;;
6689;SDS011;3382;51.576;8.076;2022-09-27T13:10:36;1.07;;;0.97;;
6689;SDS011;3382;51.576;8.076;2022-09-27T13:13:12;1.50;;;0.50;;
6689;SDS011;3382;51.576;8.076;2022-09-27T13:15:41;0.80;;;0.80;;
6689;SDS011;3382;51.576;8.076;2022-09-27T13:20:52;0.60;;;0.60;;
6689;SDS011;3382;51.576;8.076;2022-09-27T13:33:32;0.70;;;0.70;;
6689;SDS011;3382;51.576;8.076;2022-09-27T13:41:32;1.93;;;0.80;;
6689;SDS011;3382;51.576;8.076;2022-09-27T13:46:39;2.00;;;1.17;;
6689;SDS011;3382;51.576;8.076;2022-09-27T13:49:38;2.80;;;0.90;;
6689;SDS011;3382;51.576;8.076;2022-09-27T13:52:25;1.63;;;1.00;;
6689;SDS011;3382;51.576;8.076;2022-09-27T13:54:58;11.27;;;2.10;;
6689;SDS011;3382;51.576;8.076;2022-09-27T14:00:24;8.17;;;3.00;;
6689;SDS011;3382;51.576;8.076;2022-09-27T14:03:00;4.97;;;2.27;;
6689;SDS011;3382;51.576;8.076;2022-09-27T14:05:39;7.93;;;2.50;;
6689;SDS011;3382;51.576;8.076;2022-09-27T14:08:17;5.57;;;2.13;;
6689;SDS011;3382;51.576;8.076;2022-09-27T14:11:10;5.83;;;2.23;;
6689;SDS011;3382;51.576;8.076;2022-09-27T14:13:39;8.97;;;2.10;;
6689;SDS011;3382;51.576;8.076;2022-09-27T14:16:12;5.00;;;2.13;;
6689;SDS011;3382;51.576;8.076;2022-09-27T14:18:53;6.73;;;2.20;;
6689;SDS011;3382;51.576;8.076;2022-09-27T14:29:45;2.00;;;1.30;;
6689;SDS011;3382;51.576;8.076;2022-09-27T14:32:18;3.93;;;1.80;;
6689;SDS011;3382;51.576;8.076;2022-09-27T14:34:46;3.23;;;1.30;;
6689;SDS011;3382;51.576;8.076;2022-09-27T14:38:00;1.90;;;1.40;;
6689;SDS011;3382;51.576;8.076;2022-09-27T14:40:27;1.30;;;1.13;;
6689;SDS011;3382;51.576;8.076;2022-09-27T14:42:53;0.93;;;0.90;;
6689;SDS011;3382;51.576;8.076;2022-09-27T14:45:34;2.87;;;1.20;;
6689;SDS011;3382;51.576;8.076;2022-09-27T14:48:01;1.47;;;0.83;;
6689;SDS011;3382;51.576;8.076;2022-09-27T14:50:43;1.00;;;1.00;;
6689;SDS011;3382;51.576;8.076;2022-09-27T14:53:34;1.73;;;1.00;;
6689;SDS011;3382;51.576;8.076;2022-09-27T14:56:01;1.40;;;1.10;;
6689;SDS011;3382;51.576;8.076;2022-09-27T14:58:28;1.23;;;1.13;;
6689;SDS011;3382;51.576;8.076;2022-09-27T15:00:54;1.50;;;1.30;;
6689;SDS011;3382;51.576;8.076;2022-09-27T15:03:25;2.07;;;1.47;;
6689;SDS011;3382;51.576;8.076;2022-09-27T15:05:56;2.47;;;1.50;;
6689;SDS011;3382;51.576;8.076;2022-09-27T15:08:23;2.13;;;1.90;;
6689;SDS011;3382;51.576;8.076;2022-09-27T15:10:51;1.83;;;1.60;;
6689;SDS011;3382;51.576;8.076;2022-09-27T15:13:18;2.30;;;1.60;;
6689;SDS011;3382;51.576;8.076;2022-09-27T15:15:45;1.80;;;1.60;;
6689;SDS011;3382;51.576;8.076;2022-09-27T15:21:08;1.60;;;1.50;;
6689;SDS011;3382;51.576;8.076;2022-09-27T15:23:55;2.23;;;1.80;;
6689;SDS011;3382;51.576;8.076;2022-09-27T15:26:24;3.37;;;1.87;;
6689;SDS011;3382;51.576;8.076;2022-09-27T15:29:00;2.80;;;2.30;;
6689;SDS011;3382;51.576;8.076;2022-09-27T15:31:32;3.70;;;2.07;;
6689;SDS011;3382;51.576;8.076;2022-09-27T15:33:59;2.17;;;1.60;;
6689;SDS011;3382;51.576;8.076;2022-09-27T15:39:17;2.50;;;1.80;;
6689;SDS011;3382;51.576;8.076;2022-09-27T15:42:02;2.33;;;1.53;;
6689;SDS011;3382;51.576;8.076;2022-09-27T15:50:42;2.33;;;1.70;;
6689;SDS011;3382;51.576;8.076;2022-09-27T15:52:52;2.20;;;1.37;;
6689;SDS011;3382;51.576;8.076;2022-09-27T15:55:22;4.47;;;1.90;;
6689;SDS011;3382;51.576;8.076;2022-09-27T15:57:52;2.00;;;1.90;;
6689;SDS011;3382;51.576;8.076;2022-09-27T16:00:22;2.17;;;1.97;;
6689;SDS011;3382;51.576;8.076;2022-09-27T16:02:47;2.00;;;1.80;;
6689;SDS011;3382;51.576;8.076;2022-09-27T16:05:13;2.30;;;1.70;;
6689;SDS011;3382;51.576;8.076;2022-09-27T16:07:39;3.27;;;1.90;;
6689;SDS011;3382;51.576;8.076;2022-09-27T16:10:14;3.30;;;1.90;;
6689;SDS011;3382;51.576;8.076;2022-09-27T16:12:42;1.93;;;1.83;;
6689;SDS011;3382;51.576;8.076;2022-09-27T16:15:09;3.13;;;2.10;;
6689;SDS011;3382;51.576;8.076;2022-09-27T16:17:35;2.97;;;2.40;;
6689;SDS011;3382;51.576;8.076;2022-09-27T16:20:03;2.63;;;2.00;;
6689;SDS011;3382;51.576;8.076;2022-09-27T16:22:34;3.17;;;2.00;;
6689;SDS011;3382;51.576;8.076;2022-09-27T16:25:00;2.17;;;1.87;;
6689;SDS011;3382;51.576;8.076;2022-09-27T16:27:26;3.13;;;2.60;;
6689;SDS011;3382;51.576;8.076;2022-09-27T16:29:52;3.57;;;2.80;;
6689;SDS011;3382;51.576;8.076;2022-09-27T16:32:18;2.67;;;2.30;;
6689;SDS011;3382;51.576;8.076;2022-09-27T16:34:44;2.77;;;2.47;;
6689;SDS011;3382;51.576;8.076;2022-09-27T16:37:09;3.10;;;2.60;;
6689;SDS011;3382;51.576;8.076;2022-09-27T16:39:35;2.93;;;2.30;;
6689;SDS011;3382;51.576;8.076;2022-09-27T16:42:00;5.43;;;2.80;;
6689;SDS011;3382;51.576;8.076;2022-09-27T16:44:31;2.63;;;2.30;;
6689;SDS011;3382;51.576;8.076;2022-09-27T16:47:00;3.80;;;2.60;;
6689;SDS011;3382;51.576;8.076;2022-09-27T16:49:29;8.60;;;2.60;;
6689;SDS011;3382;51.576;8.076;2022-09-27T16:52:13;3.23;;;2.77;;
6689;SDS011;3382;51.576;8.076;2022-09-27T16:54:40;3.00;;;2.30;;
6689;SDS011;3382;51.576;8.076;2022-09-27T16:57:06;3.30;;;2.40;;
6689;SDS011;3382;51.576;8.076;2022-09-27T16:59:32;2.60;;;2.40;;
6689;SDS011;3382;51.576;8.076;2022-09-27T17:01:58;2.37;;;2.00;;
6689;SDS011;3382;51.576;8.076;2022-09-27T17:04:24;3.77;;;2.60;;
6689;SDS011;3382;51.576;8.076;2022-09-27T17:06:51;4.07;;;2.50;;
6689;SDS011;3382;51.576;8.076;2022-09-27T17:09:18;3.83;;;2.50;;
6689;SDS011;3382;51.576;8.076;2022-09-27T17:11:47;3.00;;;2.30;;
6689;SDS011;3382;51.576;8.076;2022-09-27T17:14:13;4.17;;;2.40;;
6689;SDS011;3382;51.576;8.076;2022-09-27T17:16:41;5.37;;;2.23;;
6689;SDS011;3382;51.576;8.076;2022-09-27T17:19:10;3.37;;;2.47;;
6689;SDS011;3382;51.576;8.076;2022-09-27T17:21:36;4.03;;;2.20;;
6689;SDS011;3382;51.576;8.076;2022-09-27T17:24:02;2.70;;;1.80;;
6689;SDS011;3382;51.576;8.076;2022-09-27T17:26:29;2.47;;;1.73;;
6689;SDS011;3382;51.576;8.076;2022-09-27T17:28:56;2.70;;;1.87;;
6689;SDS011;3382;51.576;8.076;2022-09-27T17:31:24;2.17;;;1.97;;
6689;SDS011;3382;51.576;8.076;2022-09-27T17:33:51;2.93;;;1.77;;
6689;SDS011;3382;51.576;8.076;2022-09-27T17:36:18;3.30;;;1.53;;
6689;SDS011;3382;51.576;8.076;2022-09-27T17:38:56;3.63;;;1.70;;
6689;SDS011;3382;51.576;8.076;2022-09-27T17:41:23;3.33;;;2.00;;
6689;SDS011;3382;51.576;8.076;2022-09-27T17:43:51;2.53;;;1.83;;
6689;SDS011;3382;51.576;8.076;2022-09-27T17:46:22;4.57;;;2.00;;
6689;SDS011;3382;51.576;8.076;2022-09-27T17:48:49;2.83;;;2.30;;
6689;SDS011;3382;51.576;8.076;2022-09-27T17:51:34;5.83;;;1.97;;
6689;SDS011;3382;51.576;8.076;2022-09-27T17:54:02;2.33;;;2.13;;
6689;SDS011;3382;51.576;8.076;2022-09-27T17:56:29;3.97;;;1.80;;
6689;SDS011;3382;51.576;8.076;2022-09-27T17:58:58;6.07;;;2.10;;
6689;SDS011;3382;51.576;8.076;2022-09-27T18:01:25;2.43;;;1.73;;
6689;SDS011;3382;51.576;8.076;2022-09-27T18:03:51;2.00;;;1.80;;
6689;SDS011;3382;51.576;8.076;2022-09-27T18:06:18;4.53;;;2.00;;
6689;SDS011;3382;51.576;8.076;2022-09-27T18:08:44;3.73;;;2.07;;
6689;SDS011;3382;51.576;8.076;2022-09-27T18:11:13;2.73;;;1.77;;
6689;SDS011;3382;51.576;8.076;2022-09-27T18:13:41;2.97;;;2.13;;
6689;SDS011;3382;51.576;8.076;2022-09-27T18:16:11;6.33;;;2.00;;
6689;SDS011;3382;51.576;8.076;2022-09-27T18:18:39;2.40;;;1.83;;
6689;SDS011;3382;51.576;8.076;2022-09-27T18:21:06;2.10;;;1.70;;
6689;SDS011;3382;51.576;8.076;2022-09-27T18:23:35;2.97;;;1.77;;
6689;SDS011;3382;51.576;8.076;2022-09-27T18:26:01;3.10;;;1.63;;
6689;SDS011;3382;51.576;8.076;2022-09-27T18:28:32;3.37;;;1.87;;
6689;SDS011;3382;51.576;8.076;2022-09-27T18:31:03;2.23;;;1.80;;
6689;SDS011;3382;51.576;8.076;2022-09-27T18:33:31;3.90;;;1.83;;
6689;SDS011;3382;51.576;8.076;2022-09-27T18:36:16;3.50;;;2.07;;
6689;SDS011;3382;51.576;8.076;2022-09-27T18:38:44;3.37;;;1.67;;
6689;SDS011;3382;51.576;8.076;2022-09-27T18:41:11;2.23;;;1.50;;
6689;SDS011;3382;51.576;8.076;2022-09-27T18:43:39;3.33;;;2.10;;
6689;SDS011;3382;51.576;8.076;2022-09-27T18:46:06;2.93;;;1.70;;
6689;SDS011;3382;51.576;8.076;2022-09-27T18:48:34;2.77;;;2.00;;
6689;SDS011;3382;51.576;8.076;2022-09-27T18:51:05;2.83;;;1.90;;
6689;SDS011;3382;51.576;8.076;2022-09-27T18:53:33;3.13;;;2.10;;
6689;SDS011;3382;51.576;8.076;2022-09-27T18:56:14;3.07;;;2.23;;